sensor_id;sensor_type;location;lat;lon;timestamp;P1;durP1;ratioP1;P2;durP2;ratioP2
46723;SDS011;32463;48.298;11.620;2023-09-08T00:01:04;7.70;;;4.63;;
46723;SDS011;32463;48.298;11.620;2023-09-08T00:03:31;6.95;;;3.83;;
46723;SDS011;32463;48.298;11.620;2023-09-08T00:05:57;8.40;;;4.68;;
46723;SDS011;32463;48.298;11.620;2023-09-08T00:08:23;11.02;;;4.50;;
46723;SDS011;32463;48.298;11.620;2023-09-08T00:10:50;7.35;;;4.07;;
46723;SDS011;32463;48.298;11.620;2023-09-08T00:13:16;7.85;;;3.80;;
46723;SDS011;32463;48.298;11.620;2023-09-08T00:15:43;7.68;;;4.15;;
46723;SDS011;32463;48.298;11.620;2023-09-08T00:18:09;8.63;;;4.25;;
46723;SDS011;32463;48.298;11.620;2023-09-08T00:20:36;8.38;;;4.15;;
46723;SDS011;32463;48.298;11.620;2023-09-08T00:23:04;7.47;;;4.00;;
46723;SDS011;32463;48.298;11.620;2023-09-08T00:25:30;7.85;;;4.10;;
46723;SDS011;32463;48.298;11.620;2023-09-08T00:27:56;8.23;;;3.70;;
46723;SDS011;32463;48.298;11.620;2023-09-08T00:30:23;6.95;;;4.05;;
46723;SDS011;32463;48.298;11.620;2023-09-08T00:32:49;6.50;;;3.42;;
46723;SDS011;32463;48.298;11.620;2023-09-08T00:35:16;8.02;;;4.13;;
46723;SDS011;32463;48.298;11.620;2023-09-08T00:37:42;6.88;;;3.80;;
46723;SDS011;32463;48.298;11.620;2023-09-08T00:40:09;8.02;;;4.57;;
46723;SDS011;32463;48.298;11.620;2023-09-08T00:42:36;7.38;;;4.22;;
46723;SDS011;32463;48.298;11.620;2023-09-08T00:45:02;9.60;;;4.53;;
46723;SDS011;32463;48.298;11.620;2023-09-08T00:47:29;9.43;;;4.88;;
46723;SDS011;32463;48.298;11.620;2023-09-08T00:49:56;8.18;;;3.90;;
46723;SDS011;32463;48.298;11.620;2023-09-08T00:52:23;9.27;;;4.90;;
46723;SDS011;32463;48.298;11.620;2023-09-08T00:54:49;9.18;;;4.72;;
46723;SDS011;32463;48.298;11.620;2023-09-08T00:57:16;8.13;;;4.18;;
46723;SDS011;32463;48.298;11.620;2023-09-08T00:59:43;12.02;;;5.43;;
46723;SDS011;32463;48.298;11.620;2023-09-08T01:02:10;8.43;;;4.45;;
46723;SDS011;32463;48.298;11.620;2023-09-08T01:04:37;7.45;;;4.13;;
46723;SDS011;32463;48.298;11.620;2023-09-08T01:07:05;8.00;;;4.20;;
46723;SDS011;32463;48.298;11.620;2023-09-08T01:09:32;9.13;;;5.10;;
46723;SDS011;32463;48.298;11.620;2023-09-08T01:11:59;6.63;;;4.35;;
46723;SDS011;32463;48.298;11.620;2023-09-08T01:14:27;9.52;;;5.13;;
46723;SDS011;32463;48.298;11.620;2023-09-08T01:16:53;9.05;;;4.82;;
46723;SDS011;32463;48.298;11.620;2023-09-08T01:19:20;9.70;;;4.85;;
46723;SDS011;32463;48.298;11.620;2023-09-08T01:24:43;7.82;;;4.60;;
46723;SDS011;32463;48.298;11.620;2023-09-08T01:27:33;8.07;;;4.50;;
46723;SDS011;32463;48.298;11.620;2023-09-08T01:30:02;7.47;;;4.50;;
46723;SDS011;32463;48.298;11.620;2023-09-08T01:32:30;9.18;;;5.15;;
46723;SDS011;32463;48.298;11.620;2023-09-08T01:34:57;8.63;;;4.68;;
46723;SDS011;32463;48.298;11.620;2023-09-08T01:37:25;7.55;;;4.60;;
46723;SDS011;32463;48.298;11.620;2023-09-08T01:39:52;8.63;;;4.53;;
46723;SDS011;32463;48.298;11.620;2023-09-08T01:42:18;8.32;;;5.15;;
46723;SDS011;32463;48.298;11.620;2023-09-08T01:44:45;7.78;;;4.65;;
46723;SDS011;32463;48.298;11.620;2023-09-08T01:47:11;9.35;;;5.40;;
46723;SDS011;32463;48.298;11.620;2023-09-08T01:49:38;9.20;;;5.35;;
46723;SDS011;32463;48.298;11.620;2023-09-08T01:52:04;9.77;;;5.85;;
46723;SDS011;32463;48.298;11.620;2023-09-08T01:54:32;8.25;;;5.35;;
46723;SDS011;32463;48.298;11.620;2023-09-08T01:56:59;9.18;;;5.18;;
46723;SDS011;32463;48.298;11.620;2023-09-08T01:59:25;8.20;;;5.15;;
46723;SDS011;32463;48.298;11.620;2023-09-08T02:01:52;9.80;;;5.10;;
46723;SDS011;32463;48.298;11.620;2023-09-08T02:04:18;13.07;;;6.28;;
46723;SDS011;32463;48.298;11.620;2023-09-08T02:06:45;8.88;;;5.30;;
46723;SDS011;32463;48.298;11.620;2023-09-08T02:09:13;13.35;;;6.00;;
46723;SDS011;32463;48.298;11.620;2023-09-08T02:11:40;9.65;;;5.25;;
46723;SDS011;32463;48.298;11.620;2023-09-08T02:14:07;7.47;;;4.75;;
46723;SDS011;32463;48.298;11.620;2023-09-08T02:16:34;7.35;;;4.57;;
46723;SDS011;32463;48.298;11.620;2023-09-08T02:19:00;9.52;;;5.43;;
46723;SDS011;32463;48.298;11.620;2023-09-08T02:21:28;7.75;;;4.28;;
46723;SDS011;32463;48.298;11.620;2023-09-08T02:23:54;8.65;;;5.15;;
46723;SDS011;32463;48.298;11.620;2023-09-08T02:26:21;9.35;;;5.18;;
46723;SDS011;32463;48.298;11.620;2023-09-08T02:28:47;9.77;;;5.20;;
46723;SDS011;32463;48.298;11.620;2023-09-08T02:31:13;8.35;;;4.93;;
46723;SDS011;32463;48.298;11.620;2023-09-08T02:33:40;8.55;;;4.88;;
46723;SDS011;32463;48.298;11.620;2023-09-08T02:36:06;7.78;;;4.10;;
46723;SDS011;32463;48.298;11.620;2023-09-08T02:38:33;9.32;;;5.05;;
46723;SDS011;32463;48.298;11.620;2023-09-08T02:40:59;7.32;;;4.53;;
46723;SDS011;32463;48.298;11.620;2023-09-08T02:43:26;10.13;;;4.78;;
46723;SDS011;32463;48.298;11.620;2023-09-08T02:45:53;8.48;;;5.20;;
46723;SDS011;32463;48.298;11.620;2023-09-08T02:48:20;10.48;;;5.40;;
46723;SDS011;32463;48.298;11.620;2023-09-08T02:50:47;8.43;;;5.30;;
46723;SDS011;32463;48.298;11.620;2023-09-08T02:53:13;8.25;;;4.70;;
46723;SDS011;32463;48.298;11.620;2023-09-08T02:55:40;11.75;;;5.43;;
46723;SDS011;32463;48.298;11.620;2023-09-08T02:58:06;10.90;;;5.38;;
46723;SDS011;32463;48.298;11.620;2023-09-08T03:00:32;10.48;;;4.90;;
46723;SDS011;32463;48.298;11.620;2023-09-08T03:02:59;10.52;;;5.15;;
46723;SDS011;32463;48.298;11.620;2023-09-08T03:05:25;7.95;;;4.90;;
46723;SDS011;32463;48.298;11.620;2023-09-08T03:07:52;7.57;;;5.15;;
46723;SDS011;32463;48.298;11.620;2023-09-08T03:10:18;10.65;;;5.82;;
46723;SDS011;32463;48.298;11.620;2023-09-08T03:12:45;9.80;;;5.13;;
46723;SDS011;32463;48.298;11.620;2023-09-08T03:15:11;8.85;;;5.13;;
46723;SDS011;32463;48.298;11.620;2023-09-08T03:17:36;10.95;;;5.90;;
46723;SDS011;32463;48.298;11.620;2023-09-08T03:20:03;7.68;;;4.78;;
46723;SDS011;32463;48.298;11.620;2023-09-08T03:22:32;8.20;;;5.18;;
46723;SDS011;32463;48.298;11.620;2023-09-08T03:24:58;9.55;;;4.95;;
46723;SDS011;32463;48.298;11.620;2023-09-08T03:27:25;10.52;;;6.05;;
46723;SDS011;32463;48.298;11.620;2023-09-08T03:29:52;11.52;;;5.25;;
46723;SDS011;32463;48.298;11.620;2023-09-08T03:32:19;13.77;;;5.22;;
46723;SDS011;32463;48.298;11.620;2023-09-08T03:34:45;9.60;;;5.50;;
46723;SDS011;32463;48.298;11.620;2023-09-08T03:37:12;11.57;;;6.45;;
46723;SDS011;32463;48.298;11.620;2023-09-08T03:39:40;11.40;;;5.95;;
46723;SDS011;32463;48.298;11.620;2023-09-08T03:42:06;10.82;;;6.20;;
46723;SDS011;32463;48.298;11.620;2023-09-08T03:44:33;12.68;;;5.40;;
46723;SDS011;32463;48.298;11.620;2023-09-08T03:46:59;10.55;;;6.43;;
46723;SDS011;32463;48.298;11.620;2023-09-08T03:49:27;10.25;;;6.07;;
46723;SDS011;32463;48.298;11.620;2023-09-08T03:51:54;9.38;;;5.72;;
46723;SDS011;32463;48.298;11.620;2023-09-08T03:54:20;9.48;;;6.50;;
46723;SDS011;32463;48.298;11.620;2023-09-08T03:56:46;10.13;;;6.15;;
46723;SDS011;32463;48.298;11.620;2023-09-08T03:59:13;9.80;;;6.10;;
46723;SDS011;32463;48.298;11.620;2023-09-08T04:01:39;15.13;;;6.85;;
46723;SDS011;32463;48.298;11.620;2023-09-08T04:04:06;11.85;;;6.60;;
46723;SDS011;32463;48.298;11.620;2023-09-08T04:06:33;12.07;;;6.30;;
46723;SDS011;32463;48.298;11.620;2023-09-08T04:08:59;12.85;;;7.28;;
46723;SDS011;32463;48.298;11.620;2023-09-08T04:11:26;12.05;;;6.65;;
46723;SDS011;32463;48.298;11.620;2023-09-08T04:13:52;13.18;;;6.15;;
46723;SDS011;32463;48.298;11.620;2023-09-08T04:16:19;12.63;;;6.00;;
46723;SDS011;32463;48.298;11.620;2023-09-08T04:18:45;11.60;;;5.95;;
46723;SDS011;32463;48.298;11.620;2023-09-08T04:21:11;12.38;;;5.80;;
46723;SDS011;32463;48.298;11.620;2023-09-08T04:23:38;11.02;;;6.20;;
46723;SDS011;32463;48.298;11.620;2023-09-08T04:26:05;11.07;;;6.03;;
46723;SDS011;32463;48.298;11.620;2023-09-08T04:28:31;10.30;;;6.18;;
46723;SDS011;32463;48.298;11.620;2023-09-08T04:30:57;9.18;;;6.05;;
46723;SDS011;32463;48.298;11.620;2023-09-08T04:33:24;13.82;;;6.85;;
46723;SDS011;32463;48.298;11.620;2023-09-08T04:35:50;12.85;;;7.20;;
46723;SDS011;32463;48.298;11.620;2023-09-08T04:38:17;14.27;;;7.35;;
46723;SDS011;32463;48.298;11.620;2023-09-08T04:40:47;11.52;;;6.60;;
46723;SDS011;32463;48.298;11.620;2023-09-08T04:43:13;11.18;;;6.78;;
46723;SDS011;32463;48.298;11.620;2023-09-08T04:45:40;15.15;;;8.18;;
46723;SDS011;32463;48.298;11.620;2023-09-08T04:48:06;11.43;;;7.05;;
46723;SDS011;32463;48.298;11.620;2023-09-08T04:50:33;13.43;;;7.00;;
46723;SDS011;32463;48.298;11.620;2023-09-08T04:53:00;12.68;;;7.88;;
46723;SDS011;32463;48.298;11.620;2023-09-08T04:55:26;12.18;;;7.70;;
46723;SDS011;32463;48.298;11.620;2023-09-08T04:57:53;11.95;;;7.10;;
46723;SDS011;32463;48.298;11.620;2023-09-08T05:00:20;13.02;;;7.43;;
46723;SDS011;32463;48.298;11.620;2023-09-08T05:02:47;12.07;;;6.72;;
46723;SDS011;32463;48.298;11.620;2023-09-08T05:05:13;11.65;;;6.78;;
46723;SDS011;32463;48.298;11.620;2023-09-08T05:07:39;10.60;;;6.80;;
46723;SDS011;32463;48.298;11.620;2023-09-08T05:10:06;12.77;;;7.63;;
46723;SDS011;32463;48.298;11.620;2023-09-08T05:12:34;16.73;;;7.40;;
46723;SDS011;32463;48.298;11.620;2023-09-08T05:15:00;13.75;;;7.70;;
46723;SDS011;32463;48.298;11.620;2023-09-08T05:17:31;16.55;;;8.43;;
46723;SDS011;32463;48.298;11.620;2023-09-08T05:19:59;13.75;;;8.80;;
46723;SDS011;32463;48.298;11.620;2023-09-08T05:22:25;12.63;;;7.57;;
46723;SDS011;32463;48.298;11.620;2023-09-08T05:24:51;26.13;;;15.68;;
46723;SDS011;32463;48.298;11.620;2023-09-08T05:27:18;15.07;;;8.50;;
46723;SDS011;32463;48.298;11.620;2023-09-08T05:29:44;12.23;;;7.35;;
46723;SDS011;32463;48.298;11.620;2023-09-08T05:32:10;11.82;;;7.32;;
46723;SDS011;32463;48.298;11.620;2023-09-08T05:34:37;14.27;;;6.95;;
46723;SDS011;32463;48.298;11.620;2023-09-08T05:37:03;14.90;;;7.10;;
46723;SDS011;32463;48.298;11.620;2023-09-08T05:39:30;12.50;;;7.43;;
46723;SDS011;32463;48.298;11.620;2023-09-08T05:41:57;12.52;;;7.18;;
46723;SDS011;32463;48.298;11.620;2023-09-08T05:44:23;12.20;;;7.78;;
46723;SDS011;32463;48.298;11.620;2023-09-08T05:46:50;14.13;;;7.05;;
46723;SDS011;32463;48.298;11.620;2023-09-08T05:49:16;13.95;;;6.53;;
46723;SDS011;32463;48.298;11.620;2023-09-08T05:51:44;34.63;;;16.98;;
46723;SDS011;32463;48.298;11.620;2023-09-08T05:54:10;23.38;;;11.27;;
46723;SDS011;32463;48.298;11.620;2023-09-08T05:56:37;15.13;;;8.15;;
46723;SDS011;32463;48.298;11.620;2023-09-08T05:59:04;15.18;;;7.95;;
46723;SDS011;32463;48.298;11.620;2023-09-08T06:01:31;12.10;;;7.60;;
46723;SDS011;32463;48.298;11.620;2023-09-08T06:03:57;10.63;;;6.18;;
46723;SDS011;32463;48.298;11.620;2023-09-08T06:06:24;13.93;;;7.03;;
46723;SDS011;32463;48.298;11.620;2023-09-08T06:08:51;11.02;;;6.50;;
46723;SDS011;32463;48.298;11.620;2023-09-08T06:11:17;11.35;;;6.80;;
46723;SDS011;32463;48.298;11.620;2023-09-08T06:13:44;10.73;;;6.50;;
46723;SDS011;32463;48.298;11.620;2023-09-08T06:16:10;10.77;;;6.05;;
46723;SDS011;32463;48.298;11.620;2023-09-08T06:18:36;12.35;;;6.78;;
46723;SDS011;32463;48.298;11.620;2023-09-08T06:21:06;11.13;;;6.90;;
46723;SDS011;32463;48.298;11.620;2023-09-08T06:23:33;9.98;;;6.35;;
46723;SDS011;32463;48.298;11.620;2023-09-08T06:26:00;9.85;;;6.63;;
46723;SDS011;32463;48.298;11.620;2023-09-08T06:28:27;10.82;;;6.50;;
46723;SDS011;32463;48.298;11.620;2023-09-08T06:30:53;12.02;;;6.78;;
46723;SDS011;32463;48.298;11.620;2023-09-08T06:33:20;10.82;;;6.80;;
46723;SDS011;32463;48.298;11.620;2023-09-08T06:35:47;11.40;;;6.28;;
46723;SDS011;32463;48.298;11.620;2023-09-08T06:38:14;10.25;;;6.38;;
46723;SDS011;32463;48.298;11.620;2023-09-08T06:40:41;8.98;;;5.82;;
46723;SDS011;32463;48.298;11.620;2023-09-08T06:43:08;7.45;;;5.15;;
46723;SDS011;32463;48.298;11.620;2023-09-08T06:45:37;11.20;;;6.72;;
46723;SDS011;32463;48.298;11.620;2023-09-08T06:48:04;10.95;;;5.57;;
46723;SDS011;32463;48.298;11.620;2023-09-08T06:50:30;8.68;;;5.50;;
46723;SDS011;32463;48.298;11.620;2023-09-08T06:52:57;11.68;;;6.55;;
46723;SDS011;32463;48.298;11.620;2023-09-08T06:55:24;10.57;;;5.57;;
46723;SDS011;32463;48.298;11.620;2023-09-08T06:57:50;9.93;;;6.07;;
46723;SDS011;32463;48.298;11.620;2023-09-08T07:00:17;9.18;;;5.60;;
46723;SDS011;32463;48.298;11.620;2023-09-08T07:02:45;9.20;;;5.50;;
46723;SDS011;32463;48.298;11.620;2023-09-08T07:05:12;17.88;;;6.10;;
46723;SDS011;32463;48.298;11.620;2023-09-08T07:07:38;13.43;;;5.68;;
46723;SDS011;32463;48.298;11.620;2023-09-08T07:10:05;11.60;;;6.05;;
46723;SDS011;32463;48.298;11.620;2023-09-08T07:12:32;10.63;;;5.85;;
46723;SDS011;32463;48.298;11.620;2023-09-08T07:14:58;13.65;;;6.32;;
46723;SDS011;32463;48.298;11.620;2023-09-08T07:17:25;10.32;;;5.75;;
46723;SDS011;32463;48.298;11.620;2023-09-08T07:19:52;9.38;;;5.43;;
46723;SDS011;32463;48.298;11.620;2023-09-08T07:22:18;10.18;;;6.32;;
46723;SDS011;32463;48.298;11.620;2023-09-08T07:24:45;9.75;;;5.53;;
46723;SDS011;32463;48.298;11.620;2023-09-08T07:27:11;10.25;;;5.97;;
46723;SDS011;32463;48.298;11.620;2023-09-08T07:29:39;9.13;;;5.55;;
46723;SDS011;32463;48.298;11.620;2023-09-08T07:32:06;10.05;;;6.18;;
46723;SDS011;32463;48.298;11.620;2023-09-08T07:34:33;9.88;;;5.82;;
46723;SDS011;32463;48.298;11.620;2023-09-08T07:37:00;10.10;;;6.25;;
46723;SDS011;32463;48.298;11.620;2023-09-08T07:39:27;12.70;;;6.13;;
46723;SDS011;32463;48.298;11.620;2023-09-08T07:41:53;10.68;;;6.60;;
46723;SDS011;32463;48.298;11.620;2023-09-08T07:44:27;12.07;;;6.20;;
46723;SDS011;32463;48.298;11.620;2023-09-08T07:46:58;11.63;;;5.35;;
46723;SDS011;32463;48.298;11.620;2023-09-08T07:49:29;9.50;;;5.45;;
46723;SDS011;32463;48.298;11.620;2023-09-08T07:51:56;10.18;;;5.38;;
46723;SDS011;32463;48.298;11.620;2023-09-08T07:54:23;9.68;;;5.32;;
46723;SDS011;32463;48.298;11.620;2023-09-08T07:56:49;9.60;;;5.45;;
46723;SDS011;32463;48.298;11.620;2023-09-08T07:59:15;8.15;;;5.22;;
46723;SDS011;32463;48.298;11.620;2023-09-08T08:01:42;10.63;;;5.53;;
46723;SDS011;32463;48.298;11.620;2023-09-08T08:04:08;12.85;;;6.35;;
46723;SDS011;32463;48.298;11.620;2023-09-08T08:06:37;9.50;;;6.03;;
46723;SDS011;32463;48.298;11.620;2023-09-08T08:09:04;8.73;;;5.70;;
46723;SDS011;32463;48.298;11.620;2023-09-08T08:11:30;8.68;;;5.07;;
46723;SDS011;32463;48.298;11.620;2023-09-08T08:13:57;10.95;;;6.65;;
46723;SDS011;32463;48.298;11.620;2023-09-08T08:16:23;9.77;;;6.30;;
46723;SDS011;32463;48.298;11.620;2023-09-08T08:18:50;9.50;;;5.97;;
46723;SDS011;32463;48.298;11.620;2023-09-08T08:21:16;10.52;;;6.20;;
46723;SDS011;32463;48.298;11.620;2023-09-08T08:23:42;10.25;;;6.13;;
46723;SDS011;32463;48.298;11.620;2023-09-08T08:26:09;11.40;;;6.15;;
46723;SDS011;32463;48.298;11.620;2023-09-08T08:28:35;12.00;;;6.05;;
46723;SDS011;32463;48.298;11.620;2023-09-08T08:31:02;10.82;;;6.80;;
46723;SDS011;32463;48.298;11.620;2023-09-08T08:33:28;11.43;;;6.57;;
46723;SDS011;32463;48.298;11.620;2023-09-08T08:35:55;10.70;;;6.32;;
46723;SDS011;32463;48.298;11.620;2023-09-08T08:38:21;9.77;;;6.05;;
46723;SDS011;32463;48.298;11.620;2023-09-08T08:40:48;10.35;;;6.25;;
46723;SDS011;32463;48.298;11.620;2023-09-08T08:43:14;10.18;;;6.78;;
46723;SDS011;32463;48.298;11.620;2023-09-08T08:45:41;10.85;;;7.15;;
46723;SDS011;32463;48.298;11.620;2023-09-08T08:48:09;11.25;;;5.95;;
46723;SDS011;32463;48.298;11.620;2023-09-08T08:50:36;9.85;;;6.80;;
46723;SDS011;32463;48.298;11.620;2023-09-08T08:53:04;16.48;;;10.60;;
46723;SDS011;32463;48.298;11.620;2023-09-08T08:55:35;9.13;;;5.50;;
46723;SDS011;32463;48.298;11.620;2023-09-08T08:58:04;10.65;;;6.55;;
46723;SDS011;32463;48.298;11.620;2023-09-08T09:00:34;9.70;;;6.15;;
46723;SDS011;32463;48.298;11.620;2023-09-08T09:03:04;8.77;;;5.57;;
46723;SDS011;32463;48.298;11.620;2023-09-08T09:05:32;9.02;;;6.10;;
46723;SDS011;32463;48.298;11.620;2023-09-08T09:08:01;9.68;;;6.07;;
46723;SDS011;32463;48.298;11.620;2023-09-08T09:10:28;10.93;;;6.38;;
46723;SDS011;32463;48.298;11.620;2023-09-08T09:12:56;9.52;;;6.70;;
46723;SDS011;32463;48.298;11.620;2023-09-08T09:15:29;9.82;;;6.93;;
46723;SDS011;32463;48.298;11.620;2023-09-08T09:18:04;9.50;;;5.38;;
46723;SDS011;32463;48.298;11.620;2023-09-08T09:20:31;11.82;;;6.78;;
46723;SDS011;32463;48.298;11.620;2023-09-08T09:22:58;12.77;;;7.38;;
46723;SDS011;32463;48.298;11.620;2023-09-08T09:25:29;8.45;;;5.80;;
46723;SDS011;32463;48.298;11.620;2023-09-08T09:27:58;9.20;;;6.10;;
46723;SDS011;32463;48.298;11.620;2023-09-08T09:30:26;7.05;;;4.68;;
46723;SDS011;32463;48.298;11.620;2023-09-08T09:32:59;9.35;;;6.75;;
46723;SDS011;32463;48.298;11.620;2023-09-08T09:35:39;10.88;;;5.40;;
46723;SDS011;32463;48.298;11.620;2023-09-08T09:38:09;12.68;;;6.85;;
46723;SDS011;32463;48.298;11.620;2023-09-08T09:40:37;8.93;;;5.95;;
46723;SDS011;32463;48.298;11.620;2023-09-08T09:43:04;6.72;;;5.00;;
46723;SDS011;32463;48.298;11.620;2023-09-08T09:45:33;9.45;;;5.13;;
46723;SDS011;32463;48.298;11.620;2023-09-08T09:48:01;12.18;;;6.35;;
46723;SDS011;32463;48.298;11.620;2023-09-08T09:50:29;8.90;;;5.63;;
46723;SDS011;32463;48.298;11.620;2023-09-08T09:52:58;11.00;;;6.30;;
46723;SDS011;32463;48.298;11.620;2023-09-08T09:55:26;7.88;;;5.07;;
46723;SDS011;32463;48.298;11.620;2023-09-08T09:57:55;10.68;;;5.43;;
46723;SDS011;32463;48.298;11.620;2023-09-08T10:00:26;8.07;;;5.32;;
46723;SDS011;32463;48.298;11.620;2023-09-08T10:02:53;10.32;;;5.75;;
46723;SDS011;32463;48.298;11.620;2023-09-08T10:05:21;9.38;;;5.35;;
46723;SDS011;32463;48.298;11.620;2023-09-08T10:07:47;10.43;;;6.30;;
46723;SDS011;32463;48.298;11.620;2023-09-08T10:10:15;10.07;;;5.50;;
46723;SDS011;32463;48.298;11.620;2023-09-08T10:12:46;11.70;;;5.85;;
46723;SDS011;32463;48.298;11.620;2023-09-08T10:15:20;8.27;;;5.60;;
46723;SDS011;32463;48.298;11.620;2023-09-08T10:17:54;8.00;;;5.07;;
46723;SDS011;32463;48.298;11.620;2023-09-08T10:20:24;9.13;;;5.50;;
46723;SDS011;32463;48.298;11.620;2023-09-08T10:25:52;11.02;;;4.88;;
46723;SDS011;32463;48.298;11.620;2023-09-08T10:28:23;7.38;;;4.30;;
46723;SDS011;32463;48.298;11.620;2023-09-08T10:30:51;8.88;;;5.40;;
46723;SDS011;32463;48.298;11.620;2023-09-08T10:33:19;8.38;;;4.38;;
46723;SDS011;32463;48.298;11.620;2023-09-08T10:35:48;7.10;;;4.90;;
46723;SDS011;32463;48.298;11.620;2023-09-08T10:38:26;8.55;;;5.25;;
46723;SDS011;32463;48.298;11.620;2023-09-08T10:43:42;7.28;;;4.55;;
46723;SDS011;32463;48.298;11.620;2023-09-08T10:46:10;8.00;;;4.75;;
46723;SDS011;32463;48.298;11.620;2023-09-08T10:48:41;9.07;;;4.30;;
46723;SDS011;32463;48.298;11.620;2023-09-08T10:51:17;9.73;;;5.45;;
46723;SDS011;32463;48.298;11.620;2023-09-08T10:53:46;6.78;;;4.90;;
46723;SDS011;32463;48.298;11.620;2023-09-08T10:56:13;7.15;;;4.35;;
46723;SDS011;32463;48.298;11.620;2023-09-08T10:58:40;8.02;;;4.88;;
46723;SDS011;32463;48.298;11.620;2023-09-08T11:01:12;6.75;;;4.45;;
46723;SDS011;32463;48.298;11.620;2023-09-08T11:06:10;6.72;;;4.60;;
46723;SDS011;32463;48.298;11.620;2023-09-08T11:08:43;6.50;;;4.82;;
46723;SDS011;32463;48.298;11.620;2023-09-08T11:11:11;8.90;;;4.85;;
46723;SDS011;32463;48.298;11.620;2023-09-08T11:13:38;12.90;;;8.07;;
46723;SDS011;32463;48.298;11.620;2023-09-08T11:16:06;8.10;;;4.28;;
46723;SDS011;32463;48.298;11.620;2023-09-08T11:18:33;6.38;;;4.32;;
46723;SDS011;32463;48.298;11.620;2023-09-08T11:21:01;7.35;;;4.88;;
46723;SDS011;32463;48.298;11.620;2023-09-08T11:23:30;7.82;;;4.20;;
46723;SDS011;32463;48.298;11.620;2023-09-08T11:25:57;9.30;;;4.38;;
46723;SDS011;32463;48.298;11.620;2023-09-08T11:28:26;6.93;;;4.45;;
46723;SDS011;32463;48.298;11.620;2023-09-08T11:30:54;7.00;;;5.13;;
46723;SDS011;32463;48.298;11.620;2023-09-08T11:33:22;7.95;;;4.90;;
46723;SDS011;32463;48.298;11.620;2023-09-08T11:35:50;8.73;;;5.25;;
46723;SDS011;32463;48.298;11.620;2023-09-08T11:38:19;6.43;;;3.90;;
46723;SDS011;32463;48.298;11.620;2023-09-08T11:40:50;7.13;;;4.13;;
46723;SDS011;32463;48.298;11.620;2023-09-08T11:43:17;6.97;;;4.50;;
46723;SDS011;32463;48.298;11.620;2023-09-08T11:45:44;8.75;;;4.80;;
46723;SDS011;32463;48.298;11.620;2023-09-08T11:48:13;10.07;;;4.65;;
46723;SDS011;32463;48.298;11.620;2023-09-08T11:50:40;9.50;;;5.22;;
46723;SDS011;32463;48.298;11.620;2023-09-08T11:53:10;8.90;;;4.55;;
46723;SDS011;32463;48.298;11.620;2023-09-08T11:55:37;7.35;;;4.85;;
46723;SDS011;32463;48.298;11.620;2023-09-08T11:58:03;9.48;;;5.90;;
46723;SDS011;32463;48.298;11.620;2023-09-08T12:00:30;6.53;;;4.65;;
46723;SDS011;32463;48.298;11.620;2023-09-08T12:03:09;6.85;;;4.35;;
46723;SDS011;32463;48.298;11.620;2023-09-08T12:05:36;10.40;;;5.25;;
46723;SDS011;32463;48.298;11.620;2023-09-08T12:08:04;6.43;;;4.57;;
46723;SDS011;32463;48.298;11.620;2023-09-08T12:10:39;6.60;;;4.88;;
46723;SDS011;32463;48.298;11.620;2023-09-08T12:13:07;7.32;;;5.25;;
46723;SDS011;32463;48.298;11.620;2023-09-08T12:15:35;8.55;;;4.72;;
46723;SDS011;32463;48.298;11.620;2023-09-08T12:18:06;8.30;;;5.15;;
46723;SDS011;32463;48.298;11.620;2023-09-08T12:20:34;7.18;;;4.68;;
46723;SDS011;32463;48.298;11.620;2023-09-08T12:23:03;7.13;;;5.22;;
46723;SDS011;32463;48.298;11.620;2023-09-08T12:25:32;6.47;;;4.75;;
46723;SDS011;32463;48.298;11.620;2023-09-08T12:28:00;8.20;;;5.32;;
46723;SDS011;32463;48.298;11.620;2023-09-08T12:30:28;7.10;;;5.07;;
46723;SDS011;32463;48.298;11.620;2023-09-08T12:32:57;7.65;;;5.28;;
46723;SDS011;32463;48.298;11.620;2023-09-08T12:35:25;10.02;;;7.47;;
46723;SDS011;32463;48.298;11.620;2023-09-08T12:38:05;12.38;;;8.55;;
46723;SDS011;32463;48.298;11.620;2023-09-08T12:40:33;8.00;;;4.97;;
46723;SDS011;32463;48.298;11.620;2023-09-08T12:43:02;9.05;;;6.10;;
46723;SDS011;32463;48.298;11.620;2023-09-08T12:45:29;10.55;;;5.57;;
46723;SDS011;32463;48.298;11.620;2023-09-08T12:48:00;12.63;;;6.35;;
46723;SDS011;32463;48.298;11.620;2023-09-08T12:50:28;8.07;;;4.80;;
46723;SDS011;32463;48.298;11.620;2023-09-08T12:52:55;9.57;;;5.70;;
46723;SDS011;32463;48.298;11.620;2023-09-08T12:55:22;11.35;;;6.70;;
46723;SDS011;32463;48.298;11.620;2023-09-08T12:57:49;9.27;;;5.32;;
46723;SDS011;32463;48.298;11.620;2023-09-08T13:00:19;8.10;;;6.00;;
46723;SDS011;32463;48.298;11.620;2023-09-08T13:02:47;9.85;;;6.22;;
46723;SDS011;32463;48.298;11.620;2023-09-08T13:05:14;12.32;;;5.55;;
46723;SDS011;32463;48.298;11.620;2023-09-08T13:07:40;8.73;;;5.55;;
46723;SDS011;32463;48.298;11.620;2023-09-08T13:10:07;6.25;;;4.85;;
46723;SDS011;32463;48.298;11.620;2023-09-08T13:12:34;8.68;;;5.07;;
46723;SDS011;32463;48.298;11.620;2023-09-08T13:15:00;10.68;;;5.53;;
46723;SDS011;32463;48.298;11.620;2023-09-08T13:17:27;12.45;;;4.93;;
46723;SDS011;32463;48.298;11.620;2023-09-08T13:19:53;7.20;;;5.40;;
46723;SDS011;32463;48.298;11.620;2023-09-08T13:22:20;8.48;;;5.68;;
46723;SDS011;32463;48.298;11.620;2023-09-08T13:24:46;6.40;;;4.47;;
46723;SDS011;32463;48.298;11.620;2023-09-08T13:27:12;7.38;;;4.88;;
46723;SDS011;32463;48.298;11.620;2023-09-08T13:29:40;8.10;;;4.95;;
46723;SDS011;32463;48.298;11.620;2023-09-08T13:32:07;8.40;;;5.40;;
46723;SDS011;32463;48.298;11.620;2023-09-08T13:34:33;8.55;;;5.80;;
46723;SDS011;32463;48.298;11.620;2023-09-08T13:37:00;7.97;;;6.00;;
46723;SDS011;32463;48.298;11.620;2023-09-08T13:39:28;8.52;;;5.07;;
46723;SDS011;32463;48.298;11.620;2023-09-08T13:41:55;9.18;;;6.00;;
46723;SDS011;32463;48.298;11.620;2023-09-08T13:44:23;8.65;;;6.13;;
46723;SDS011;32463;48.298;11.620;2023-09-08T13:46:50;6.90;;;5.07;;
46723;SDS011;32463;48.298;11.620;2023-09-08T13:49:17;8.07;;;5.50;;
46723;SDS011;32463;48.298;11.620;2023-09-08T13:51:44;7.97;;;5.13;;
46723;SDS011;32463;48.298;11.620;2023-09-08T13:54:11;9.60;;;5.13;;
46723;SDS011;32463;48.298;11.620;2023-09-08T13:56:41;9.68;;;5.93;;
46723;SDS011;32463;48.298;11.620;2023-09-08T13:59:08;7.90;;;4.75;;
46723;SDS011;32463;48.298;11.620;2023-09-08T14:01:36;9.00;;;5.70;;
46723;SDS011;32463;48.298;11.620;2023-09-08T14:04:03;11.63;;;5.20;;
46723;SDS011;32463;48.298;11.620;2023-09-08T14:06:31;7.03;;;5.15;;
46723;SDS011;32463;48.298;11.620;2023-09-08T14:08:58;7.60;;;5.75;;
46723;SDS011;32463;48.298;11.620;2023-09-08T14:11:25;8.02;;;5.60;;
46723;SDS011;32463;48.298;11.620;2023-09-08T14:13:52;7.80;;;5.05;;
46723;SDS011;32463;48.298;11.620;2023-09-08T14:16:19;7.63;;;5.15;;
46723;SDS011;32463;48.298;11.620;2023-09-08T14:18:45;8.05;;;5.20;;
46723;SDS011;32463;48.298;11.620;2023-09-08T14:21:12;8.30;;;4.97;;
46723;SDS011;32463;48.298;11.620;2023-09-08T14:23:38;10.40;;;4.90;;
46723;SDS011;32463;48.298;11.620;2023-09-08T14:26:05;7.03;;;5.60;;
46723;SDS011;32463;48.298;11.620;2023-09-08T14:28:32;9.07;;;5.50;;
46723;SDS011;32463;48.298;11.620;2023-09-08T14:30:59;7.90;;;4.72;;
46723;SDS011;32463;48.298;11.620;2023-09-08T14:33:25;6.82;;;5.05;;
46723;SDS011;32463;48.298;11.620;2023-09-08T14:35:52;9.40;;;5.60;;
46723;SDS011;32463;48.298;11.620;2023-09-08T14:38:19;8.05;;;5.70;;
46723;SDS011;32463;48.298;11.620;2023-09-08T14:40:56;7.32;;;5.32;;